North Java, New York
Current Conditions -  °F | °C
As of 4:54 AM on Sunday 26 Oct 2014 (Local Time) from KBUF Reporting Station
Broken Clouds Broken Clouds  
Wind Chill: 43°   Ceiling: 10000
Heat Index: 49°   Visibility: 10mi
Dew Point: 35°   Wind: 15mph
Humidity: 59%   Direction: 250°WSW
Pressure: 29.67"   Gusts: NA
Location:  42.68°N, 78.34°W
Report Text: KBUF 260854Z 25013KT 10SM SCT060 BKN100 09/02 A2967 RMK AO2 SLP050 T00940017 55000
Loading
Personal Weather Stations






























Interactive Weather Map
Tropical Storm Tracking
New forecast layout! Learn more

10-Day Weather Forecast

Advertisements
Track Severe Weather on mobile